createdAt,value
2023-03-12T00:01:18.671Z,52.02
2023-03-12T00:03:45.570Z,52.05
2023-03-12T00:06:12.624Z,52.10
2023-03-12T00:08:40.125Z,52.02
2023-03-12T00:11:11.535Z,51.40
2023-03-12T00:13:38.608Z,52.14
2023-03-12T00:16:13.688Z,51.90
2023-03-12T00:18:41.085Z,51.80
2023-03-12T00:21:08.638Z,51.64
2023-03-12T00:23:35.855Z,51.43
2023-03-12T00:26:08.353Z,50.81
2023-03-12T00:28:36.228Z,51.43
2023-03-12T00:31:04.585Z,51.48
2023-03-12T00:33:31.171Z,51.44
2023-03-12T00:36:00.890Z,51.17
2023-03-12T00:38:27.395Z,51.59
2023-03-12T00:40:53.817Z,51.43
2023-03-12T00:43:20.305Z,51.80
2023-03-12T00:45:46.778Z,51.82
2023-03-12T00:48:13.371Z,52.05
2023-03-12T00:50:39.921Z,52.02
2023-03-12T00:53:06.785Z,52.54
2023-03-12T00:55:33.305Z,52.27
2023-03-12T00:57:59.713Z,52.35
2023-03-12T01:00:26.487Z,52.78
2023-03-12T01:02:53.048Z,52.96
2023-03-12T01:05:19.882Z,53.15
2023-03-12T01:10:18.802Z,52.84
2023-03-12T01:12:45.110Z,53.39
2023-03-12T01:15:15.474Z,52.69
2023-03-12T01:17:41.881Z,52.80
2023-03-12T01:20:10.983Z,52.58
2023-03-12T01:22:37.561Z,52.95
2023-03-12T01:25:04.115Z,52.85
2023-03-12T01:27:30.456Z,52.72
2023-03-12T01:29:56.824Z,53.15
2023-03-12T01:32:23.597Z,53.04
2023-03-12T01:34:49.962Z,52.99
2023-03-12T01:37:16.283Z,53.01
2023-03-12T01:39:42.624Z,52.86
2023-03-12T01:42:09.242Z,53.08
2023-03-12T01:44:58.143Z,52.44
2023-03-12T01:47:25.813Z,53.35
2023-03-12T01:49:55.719Z,53.25
2023-03-12T01:52:26.538Z,53.23
2023-03-12T01:55:13.465Z,52.94
2023-03-12T01:57:46.147Z,53.27
2023-03-12T02:00:16.103Z,53.25
2023-03-12T02:02:44.583Z,54.16
2023-03-12T02:05:33.180Z,53.67
2023-03-12T02:07:59.560Z,54.05
2023-03-12T02:10:26.476Z,53.89
2023-03-12T02:12:53.175Z,53.75
2023-03-12T02:15:19.888Z,54.02
2023-03-12T02:17:46.548Z,54.08
2023-03-12T02:20:23.938Z,53.60
2023-03-12T02:23:05.635Z,53.66
2023-03-12T02:25:43.908Z,53.47
2023-03-12T02:28:14.602Z,53.64
2023-03-12T02:30:45.810Z,54.08
2023-03-12T02:33:12.821Z,54.29
2023-03-12T02:35:39.400Z,53.95
2023-03-12T02:38:32.044Z,53.89
2023-03-12T02:41:06.676Z,54.37
2023-03-12T02:43:33.019Z,54.07
2023-03-12T02:45:59.567Z,54.22
2023-03-12T02:48:25.998Z,54.76
2023-03-12T02:50:52.349Z,54.63
2023-03-12T02:53:18.719Z,54.89
2023-03-12T02:55:45.133Z,55.20
2023-03-12T02:58:11.484Z,55.06
2023-03-12T03:00:37.908Z,55.21
2023-03-12T03:03:04.318Z,55.11
2023-03-12T03:05:30.665Z,55.15
2023-03-12T03:07:56.991Z,55.26
2023-03-12T03:10:23.384Z,55.07
2023-03-12T03:12:50.048Z,54.99
2023-03-12T03:15:16.500Z,54.84
2023-03-12T03:17:42.810Z,54.95
2023-03-12T03:20:11.930Z,55.00
2023-03-12T03:22:39.254Z,54.97
2023-03-12T03:25:07.768Z,54.73
2023-03-12T03:27:34.235Z,54.69
2023-03-12T03:30:00.672Z,54.29
2023-03-12T03:32:27.372Z,54.93
2023-03-12T03:34:53.813Z,54.73
2023-03-12T03:37:20.120Z,54.87
2023-03-12T03:39:46.486Z,54.58
2023-03-12T03:42:12.853Z,55.04
2023-03-12T03:44:39.166Z,54.78
2023-03-12T03:47:05.668Z,54.90
2023-03-12T03:49:32.073Z,55.12
2023-03-12T03:51:58.425Z,54.86
2023-03-12T03:54:24.782Z,54.97
2023-03-12T03:56:51.092Z,55.15
2023-03-12T03:59:17.444Z,54.91
2023-03-12T04:01:43.749Z,55.55
2023-03-12T04:04:10.084Z,55.53
2023-03-12T04:06:37.549Z,55.40
2023-03-12T04:09:04.578Z,55.60
2023-03-12T04:11:30.976Z,55.44
2023-03-12T04:13:57.866Z,55.16
2023-03-12T04:16:24.728Z,55.47
2023-03-12T04:18:51.222Z,55.46
2023-03-12T04:21:17.589Z,55.21
2023-03-12T04:23:43.980Z,55.22
2023-03-12T04:26:10.556Z,54.92
2023-03-12T04:28:38.075Z,55.27
2023-03-12T04:31:07.200Z,54.85
2023-03-12T04:33:37.120Z,55.03
2023-03-12T04:36:04.652Z,55.16
2023-03-12T04:38:31.265Z,55.33
2023-03-12T04:41:07.191Z,55.07
2023-03-12T04:43:34.692Z,55.59
2023-03-12T04:46:02.773Z,55.49
2023-03-12T04:48:29.337Z,55.56
2023-03-12T04:50:55.751Z,55.56
2023-03-12T04:53:22.739Z,55.33
2023-03-12T04:55:50.067Z,55.26
2023-03-12T04:58:16.437Z,55.29
2023-03-12T05:00:42.993Z,55.14
2023-03-12T05:03:09.844Z,55.17
2023-03-12T05:05:36.715Z,55.22
2023-03-12T05:08:04.362Z,55.06
2023-03-12T05:10:30.696Z,54.97
2023-03-12T05:12:57.088Z,55.10
2023-03-12T05:15:24.091Z,54.98
2023-03-12T05:17:50.478Z,55.17
2023-03-12T05:20:19.688Z,55.26
2023-03-12T05:22:46.009Z,55.28
2023-03-12T05:25:12.460Z,55.09
2023-03-12T05:27:39.085Z,55.62
2023-03-12T05:30:07.114Z,55.38
2023-03-12T05:32:33.532Z,55.31
2023-03-12T05:34:59.929Z,55.50
2023-03-12T05:37:26.279Z,55.32
2023-03-12T05:39:54.199Z,55.16
2023-03-12T05:42:20.522Z,54.96
2023-03-12T05:44:46.831Z,55.46
2023-03-12T05:47:13.184Z,55.52
2023-03-12T05:49:39.515Z,55.36
2023-03-12T05:52:06.460Z,55.52
2023-03-12T05:54:32.799Z,55.72
2023-03-12T05:56:59.171Z,55.85
2023-03-12T05:59:25.584Z,55.89
2023-03-12T06:01:51.949Z,55.99
2023-03-12T06:04:18.343Z,55.90
2023-03-12T06:06:44.666Z,55.83
2023-03-12T06:09:11.188Z,55.62
2023-03-12T06:11:37.545Z,55.75
2023-03-12T06:14:04.834Z,55.75
2023-03-12T06:16:31.301Z,55.71
2023-03-12T06:19:00.262Z,55.38
2023-03-12T06:21:30.759Z,55.26
2023-03-12T06:23:57.810Z,55.41
2023-03-12T06:26:24.599Z,54.93
2023-03-12T06:28:52.068Z,55.15
2023-03-12T06:31:20.471Z,55.17
2023-03-12T06:33:47.379Z,55.62
2023-03-12T06:36:13.884Z,55.20
2023-03-12T06:38:40.933Z,55.16
2023-03-12T06:41:13.031Z,55.05
2023-03-12T06:43:40.123Z,55.33
2023-03-12T06:46:08.767Z,55.03
2023-03-12T06:48:41.242Z,55.28
2023-03-12T06:51:10.516Z,55.12
2023-03-12T06:53:37.167Z,55.11
2023-03-12T06:56:04.247Z,55.10
2023-03-12T06:58:31.483Z,55.11
2023-03-12T07:00:58.220Z,54.83
2023-03-12T07:03:24.881Z,54.83
2023-03-12T07:05:51.829Z,54.69
2023-03-12T07:11:18.941Z,54.82
2023-03-12T07:13:48.603Z,54.06
2023-03-12T07:18:59.074Z,53.81
2023-03-12T07:21:25.761Z,54.83
2023-03-12T07:23:52.702Z,54.95
2023-03-12T07:26:20.084Z,54.87
2023-03-12T07:28:46.801Z,55.14
2023-03-12T07:31:13.363Z,54.87
2023-03-12T07:33:40.057Z,54.89
2023-03-12T07:36:07.453Z,54.43
2023-03-12T07:38:59.061Z,53.25
2023-03-12T07:41:25.646Z,54.82
2023-03-12T07:43:52.176Z,55.18
2023-03-12T07:46:18.938Z,55.40
2023-03-12T07:48:45.444Z,55.04
2023-03-12T07:51:12.005Z,54.89
2023-03-12T07:53:38.641Z,54.72
2023-03-12T07:56:05.754Z,54.69
2023-03-12T07:58:32.774Z,54.66
2023-03-12T08:01:08.505Z,54.61
2023-03-12T08:03:43.176Z,54.46
2023-03-12T08:06:10.083Z,54.80
2023-03-12T08:08:40.934Z,54.85
2023-03-12T08:11:08.634Z,54.89
2023-03-12T08:13:38.291Z,54.28
2023-03-12T08:16:09.536Z,54.97
2023-03-12T08:18:36.474Z,54.75
2023-03-12T08:21:38.338Z,53.97
2023-03-12T08:24:53.257Z,54.18
2023-03-12T08:27:40.116Z,53.93
2023-03-12T08:30:43.938Z,55.42
2023-03-12T08:33:31.820Z,55.85
2023-03-12T08:38:39.542Z,56.06
2023-03-12T08:41:06.238Z,56.19
2023-03-12T08:43:38.691Z,55.89
2023-03-12T08:46:05.234Z,56.46
2023-03-12T08:48:38.459Z,56.62
2023-03-12T08:51:11.431Z,55.95
2023-03-12T08:53:38.129Z,56.59
2023-03-12T08:56:33.842Z,56.68
2023-03-12T08:59:52.800Z,56.62
2023-03-12T09:01:54.406Z,56.50
2023-03-12T09:04:21.101Z,56.57
2023-03-12T09:06:47.727Z,56.75
2023-03-12T09:10:13.055Z,56.59
2023-03-12T09:16:24.536Z,57.04
2023-03-12T09:18:54.646Z,57.24
2023-03-12T09:21:40.562Z,57.19
2023-03-12T09:35:48.292Z,59.00
2023-03-12T09:38:15.558Z,58.65
2023-03-12T09:43:53.024Z,59.34
2023-03-12T09:47:00.850Z,59.69
2023-03-12T09:50:02.926Z,59.74
2023-03-12T09:52:48.794Z,59.71
2023-03-12T09:55:21.758Z,59.87
2023-03-12T09:58:25.608Z,59.37
2023-03-12T10:04:23.711Z,61.07
2023-03-12T10:07:03.682Z,60.51
2023-03-12T10:12:31.019Z,60.25
2023-03-12T10:15:23.657Z,61.78
2023-03-12T10:18:04.314Z,61.89
2023-03-12T10:21:08.434Z,63.43
2023-03-12T10:23:50.955Z,62.95
2023-03-12T10:26:32.300Z,63.72
2023-03-12T10:29:16.119Z,64.54
2023-03-12T10:31:55.247Z,63.73
2023-03-12T10:34:30.683Z,63.37
2023-03-12T10:37:03.069Z,63.30
2023-03-12T10:39:29.647Z,63.02
2023-03-12T10:42:00.112Z,63.61
2023-03-12T10:44:28.886Z,64.39
2023-03-12T10:47:25.661Z,65.92
2023-03-12T10:49:53.375Z,64.60
2023-03-12T10:52:22.446Z,64.95
2023-03-12T10:54:52.214Z,65.66
2023-03-12T10:57:19.554Z,65.35
2023-03-12T10:59:48.240Z,66.18
2023-03-12T11:02:24.025Z,67.79
2023-03-12T11:04:52.463Z,67.22
2023-03-12T11:07:23.803Z,68.06
2023-03-12T11:10:15.127Z,69.36
2023-03-12T11:12:52.806Z,69.38
2023-03-12T11:15:45.939Z,70.23
2023-03-12T11:18:29.246Z,70.39
2023-03-12T11:21:11.059Z,69.82
2023-03-12T11:24:07.325Z,70.58
2023-03-12T11:26:44.779Z,70.55
2023-03-12T11:29:33.354Z,71.07
2023-03-12T11:32:16.781Z,70.00
2023-03-12T11:34:47.756Z,70.33
2023-03-12T11:37:46.005Z,70.86
2023-03-12T11:40:37.764Z,71.56
2023-03-12T11:43:43.248Z,71.26
2023-03-12T11:46:13.351Z,70.69
2023-03-12T11:49:14.356Z,71.55
2023-03-12T11:52:11.040Z,71.50
2023-03-12T11:54:59.348Z,73.04
2023-03-12T11:57:38.118Z,71.43
2023-03-12T12:00:21.146Z,72.65
2023-03-12T12:02:58.039Z,73.27
2023-03-12T12:05:41.871Z,72.11
2023-03-12T12:08:29.623Z,72.99
2023-03-12T12:11:12.917Z,72.91
2023-03-12T12:13:48.714Z,72.40
2023-03-12T12:16:37.292Z,73.26
2023-03-12T12:19:22.162Z,73.50
2023-03-12T12:21:57.198Z,73.76
2023-03-12T12:24:26.580Z,72.65
2023-03-12T12:27:01.819Z,73.40
2023-03-12T12:29:43.620Z,73.36
2023-03-12T12:32:20.254Z,73.47
2023-03-12T12:35:04.973Z,73.90
2023-03-12T12:37:58.530Z,73.68
2023-03-12T12:40:41.859Z,73.89
2023-03-12T12:43:30.768Z,74.37
2023-03-12T12:46:02.051Z,73.10
2023-03-12T12:48:35.076Z,73.51
2023-03-12T12:51:02.198Z,74.13
2023-03-12T12:53:46.826Z,73.64
2023-03-12T12:56:31.439Z,73.72
2023-03-12T12:59:21.425Z,73.81
2023-03-12T13:01:51.023Z,73.51
2023-03-12T13:04:28.485Z,74.36
2023-03-12T13:07:01.027Z,73.81
2023-03-12T13:09:55.871Z,74.88
2023-03-12T13:12:25.410Z,74.57
2023-03-12T13:14:55.048Z,74.49
2023-03-12T13:17:27.333Z,74.83
2023-03-12T13:20:01.622Z,74.95
2023-03-12T13:22:55.226Z,74.99
2023-03-12T13:25:43.542Z,75.62
2023-03-12T13:28:34.768Z,75.46
2023-03-12T13:31:29.166Z,75.41
2023-03-12T13:34:08.971Z,74.97
2023-03-12T13:36:38.370Z,74.96
2023-03-12T13:39:07.928Z,75.18
2023-03-12T13:42:00.727Z,75.30
2023-03-12T13:44:27.189Z,75.43
2023-03-12T13:47:26.964Z,76.25
2023-03-12T13:50:08.404Z,76.06
2023-03-12T13:52:41.425Z,75.76
2023-03-12T13:55:08.022Z,75.93
2023-03-12T13:57:44.746Z,75.86
2023-03-12T14:00:31.622Z,76.77
2023-03-12T14:03:04.955Z,77.15
2023-03-12T14:05:43.077Z,76.68
2023-03-12T14:08:47.088Z,78.27
2023-03-12T14:11:13.532Z,77.06
2023-03-12T14:13:39.987Z,77.04
2023-03-12T14:16:23.012Z,77.97
2023-03-12T14:18:52.085Z,77.08
2023-03-12T14:21:19.975Z,77.30
2023-03-12T14:23:51.858Z,77.75
2023-03-12T14:26:25.802Z,78.20
2023-03-12T14:29:00.472Z,78.00
2023-03-12T14:31:30.407Z,77.90
2023-03-12T14:34:12.307Z,78.43
2023-03-12T14:37:11.507Z,78.51
2023-03-12T14:39:43.602Z,77.45
2023-03-12T14:42:18.359Z,77.38
2023-03-12T14:45:10.257Z,77.89
2023-03-12T14:48:13.473Z,78.30
2023-03-12T14:50:41.050Z,77.59
2023-03-12T14:53:13.453Z,77.53
2023-03-12T14:55:39.968Z,77.37
2023-03-12T14:58:16.091Z,77.45
2023-03-12T15:00:45.567Z,77.04
2023-03-12T15:03:16.549Z,77.38
2023-03-12T15:05:47.646Z,77.14
2023-03-12T15:08:14.937Z,77.11
2023-03-12T15:10:48.742Z,77.51
2023-03-12T15:13:17.248Z,77.39
2023-03-12T15:15:47.726Z,77.59
2023-03-12T15:18:18.989Z,77.56
2023-03-12T15:20:48.101Z,77.90
2023-03-12T15:23:17.289Z,77.99
2023-03-12T15:25:45.050Z,78.12
2023-03-12T15:28:11.451Z,77.83
2023-03-12T15:30:39.603Z,77.96
2023-03-12T15:33:21.817Z,78.43
2023-03-12T15:36:03.506Z,78.64
2023-03-12T15:38:32.849Z,78.05
2023-03-12T15:41:08.373Z,78.19
2023-03-12T15:43:35.383Z,78.20
2023-03-12T15:46:05.260Z,77.93
2023-03-12T15:48:38.453Z,78.09
2023-03-12T15:51:13.204Z,78.25
2023-03-12T15:53:39.833Z,77.87
2023-03-12T15:56:22.210Z,78.22
2023-03-12T15:58:59.653Z,77.83
2023-03-12T16:01:28.133Z,77.50
2023-03-12T16:03:55.271Z,77.52
2023-03-12T16:06:25.777Z,77.57
2023-03-12T16:09:01.264Z,77.22
2023-03-12T16:11:31.324Z,77.17
2023-03-12T16:14:04.398Z,77.15
2023-03-12T16:16:30.929Z,76.65
2023-03-12T16:18:57.460Z,76.46
2023-03-12T16:21:24.075Z,76.58
2023-03-12T16:23:50.571Z,76.61
2023-03-12T16:26:17.112Z,76.68
2023-03-12T16:28:44.004Z,76.65
2023-03-12T16:31:15.606Z,76.04
2023-03-12T16:33:44.614Z,76.13
2023-03-12T16:36:16.521Z,75.57
2023-03-12T16:38:44.182Z,76.01
2023-03-12T16:41:16.033Z,75.27
2023-03-12T16:43:46.577Z,75.26
2023-03-12T16:46:19.479Z,74.79
2023-03-12T16:48:50.067Z,75.13
2023-03-12T16:51:16.656Z,75.00
2023-03-12T16:53:43.525Z,74.79
2023-03-12T16:56:17.487Z,73.95
2023-03-12T16:58:45.390Z,74.95
2023-03-12T17:01:14.503Z,74.80
2023-03-12T17:03:46.494Z,74.54
2023-03-12T17:06:16.471Z,74.23
2023-03-12T17:08:43.652Z,74.11
2023-03-12T17:11:29.228Z,73.43
2023-03-12T17:14:00.177Z,73.61
2023-03-12T17:16:26.895Z,73.77
2023-03-12T17:18:53.602Z,73.61
2023-03-12T17:21:20.995Z,73.77
2023-03-12T17:23:53.571Z,73.43
2023-03-12T17:26:20.057Z,73.43
2023-03-12T17:28:46.652Z,73.24
2023-03-12T17:31:13.260Z,73.32
2023-03-12T17:33:39.912Z,73.02
2023-03-12T17:36:09.172Z,72.62
2023-03-12T17:38:36.394Z,72.90
2023-03-12T17:41:04.678Z,72.94
2023-03-12T17:43:34.984Z,72.97
2023-03-12T17:46:09.242Z,71.86
2023-03-12T17:48:35.964Z,72.73
2023-03-12T17:51:07.286Z,72.11
2023-03-12T17:53:34.143Z,72.78
2023-03-12T17:56:00.547Z,72.53
2023-03-12T17:58:27.373Z,72.53
2023-03-12T18:00:53.841Z,72.40
2023-03-12T18:03:20.258Z,72.68
2023-03-12T18:05:49.851Z,71.89
2023-03-12T18:08:16.677Z,72.37
2023-03-12T18:10:43.318Z,72.33
2023-03-12T18:13:10.362Z,72.20
2023-03-12T18:15:37.232Z,72.01
2023-03-12T18:18:04.932Z,71.99
2023-03-12T18:20:38.585Z,71.56
2023-03-12T18:23:05.937Z,71.74
2023-03-12T18:25:32.519Z,71.72
2023-03-12T18:27:58.978Z,71.80
2023-03-12T18:30:25.847Z,71.55
2023-03-12T18:32:52.418Z,71.61
2023-03-12T18:35:19.051Z,71.51
2023-03-12T18:37:46.005Z,71.48
2023-03-12T18:40:12.809Z,71.41
2023-03-12T18:42:44.296Z,71.56
2023-03-12T18:45:11.913Z,71.28
2023-03-12T18:47:44.666Z,71.40
2023-03-12T18:50:12.629Z,71.15
2023-03-12T18:52:39.128Z,71.37
2023-03-12T18:55:05.848Z,71.34
2023-03-12T18:57:32.319Z,71.24
2023-03-12T18:59:59.471Z,71.16
2023-03-12T19:02:26.094Z,71.14
2023-03-12T19:04:55.496Z,71.25
2023-03-12T19:07:22.686Z,71.37
2023-03-12T19:12:52.821Z,71.26
2023-03-12T19:15:21.921Z,71.26
2023-03-12T19:17:48.444Z,71.21
2023-03-12T19:20:15.663Z,71.37
2023-03-12T19:22:42.088Z,71.44
2023-03-12T19:25:09.017Z,71.38
2023-03-12T19:27:35.533Z,71.31
2023-03-12T19:30:02.220Z,71.24
2023-03-12T19:32:41.982Z,71.23
2023-03-12T19:35:11.154Z,71.28
2023-03-12T19:37:37.639Z,71.44
2023-03-12T19:40:05.846Z,71.67
2023-03-12T19:42:32.801Z,71.61
2023-03-12T19:44:59.365Z,71.72
2023-03-12T19:47:26.750Z,71.49
2023-03-12T19:49:53.396Z,71.78
2023-03-12T19:52:20.195Z,71.92
2023-03-12T19:54:54.663Z,71.82
2023-03-12T19:57:29.638Z,71.95
2023-03-12T19:59:56.186Z,71.98
2023-03-12T20:02:22.758Z,71.89
2023-03-12T20:04:49.418Z,71.95
2023-03-12T20:07:17.404Z,71.94
2023-03-12T20:09:43.803Z,71.91
2023-03-12T20:12:10.350Z,71.98
2023-03-12T20:14:36.754Z,72.30
2023-03-12T20:17:03.341Z,72.07
2023-03-12T20:19:29.886Z,72.15
2023-03-12T20:21:57.232Z,72.31
2023-03-12T20:24:24.077Z,72.12
2023-03-12T20:26:50.598Z,72.16
2023-03-12T20:29:17.042Z,72.20
2023-03-12T20:31:43.630Z,72.27
2023-03-12T20:34:10.153Z,72.47
2023-03-12T20:36:36.613Z,72.46
2023-03-12T20:39:03.146Z,72.20
2023-03-12T20:41:30.641Z,72.28
2023-03-12T20:43:57.697Z,72.37
2023-03-12T20:46:24.566Z,72.33
2023-03-12T20:48:51.616Z,72.14
2023-03-12T20:51:18.304Z,72.23
2023-03-12T20:53:44.953Z,72.50
2023-03-12T20:56:12.987Z,72.08
2023-03-12T20:58:39.571Z,72.33
2023-03-12T21:01:06.272Z,72.19
2023-03-12T21:03:32.943Z,71.96
2023-03-12T21:06:01.394Z,71.62
2023-03-12T21:08:29.072Z,71.80
2023-03-12T21:10:55.748Z,71.59
2023-03-12T21:13:23.618Z,71.52
2023-03-12T21:15:50.729Z,71.88
2023-03-12T21:18:17.918Z,71.58
2023-03-12T21:20:44.917Z,71.59
2023-03-12T21:23:11.558Z,71.72
2023-03-12T21:25:40.092Z,71.53
2023-03-12T21:28:09.193Z,71.13
2023-03-12T21:30:35.964Z,71.33
2023-03-12T21:33:03.190Z,71.13
2023-03-12T21:35:29.881Z,71.09
2023-03-12T21:37:56.870Z,71.34
2023-03-12T21:40:23.957Z,71.07
2023-03-12T21:42:50.699Z,70.85
2023-03-12T21:45:17.509Z,70.93
2023-03-12T21:47:44.076Z,70.82
2023-03-12T21:50:11.180Z,70.92
2023-03-12T21:52:43.099Z,70.89
2023-03-12T21:55:10.341Z,70.35
2023-03-12T21:57:36.822Z,70.58
2023-03-12T22:00:05.131Z,70.69
2023-03-12T22:02:31.945Z,70.85
2023-03-12T22:04:59.909Z,70.83
2023-03-12T22:07:29.813Z,70.81
2023-03-12T22:09:56.432Z,70.85
2023-03-12T22:12:22.990Z,71.02
2023-03-12T22:14:49.528Z,71.00
2023-03-12T22:17:17.080Z,70.79
2023-03-12T22:19:43.701Z,71.00
2023-03-12T22:22:10.169Z,70.90
2023-03-12T22:24:37.501Z,70.78
2023-03-12T22:27:06.565Z,70.96
2023-03-12T22:29:34.154Z,70.83
2023-03-12T22:32:00.955Z,71.03
2023-03-12T22:34:29.443Z,70.70
2023-03-12T22:36:56.015Z,70.90
2023-03-12T22:39:22.495Z,70.83
2023-03-12T22:41:53.664Z,70.86
2023-03-12T22:44:20.253Z,70.77
2023-03-12T22:46:46.870Z,70.75
2023-03-12T22:49:15.064Z,70.43
2023-03-12T22:51:41.934Z,70.82
2023-03-12T22:54:08.368Z,70.70
2023-03-12T22:56:34.940Z,70.72
2023-03-12T22:59:01.448Z,70.71
2023-03-12T23:01:28.057Z,70.57
2023-03-12T23:03:54.533Z,70.56
2023-03-12T23:06:23.973Z,70.10
2023-03-12T23:08:51.834Z,70.46
2023-03-12T23:11:18.844Z,70.11
2023-03-12T23:13:46.661Z,70.65
2023-03-12T23:16:16.922Z,70.05
2023-03-12T23:18:44.622Z,70.30
2023-03-12T23:21:14.001Z,69.93
2023-03-12T23:23:43.381Z,70.39
2023-03-12T23:26:19.370Z,68.78
2023-03-12T23:28:51.282Z,70.13
2023-03-12T23:31:18.044Z,70.28
2023-03-12T23:33:44.784Z,70.14
2023-03-12T23:36:16.152Z,69.76
2023-03-12T23:38:43.140Z,69.90
2023-03-12T23:41:21.074Z,68.14
2023-03-12T23:43:48.019Z,69.59
2023-03-12T23:46:17.065Z,69.41
2023-03-12T23:48:45.658Z,69.36
2023-03-12T23:51:25.114Z,68.61
2023-03-12T23:53:55.686Z,68.92
2023-03-12T23:56:24.870Z,68.64
2023-03-12T23:58:51.592Z,69.33
